sensor_id;sensor_type;location;lat;lon;timestamp;P1;durP1;ratioP1;P2;durP2;ratioP2
79578;SDS011;69051;52.406;5.280;2023-05-07T00:02:13;36.72;;;22.25;;
79578;SDS011;69051;52.406;5.280;2023-05-07T00:04:40;30.08;;;20.58;;
79578;SDS011;69051;52.406;5.280;2023-05-07T00:07:07;33.00;;;21.60;;
79578;SDS011;69051;52.406;5.280;2023-05-07T00:09:33;33.72;;;20.75;;
79578;SDS011;69051;52.406;5.280;2023-05-07T00:12:00;27.50;;;19.33;;
79578;SDS011;69051;52.406;5.280;2023-05-07T00:14:27;25.00;;;18.52;;
79578;SDS011;69051;52.406;5.280;2023-05-07T00:16:53;27.70;;;18.85;;
79578;SDS011;69051;52.406;5.280;2023-05-07T00:19:20;29.27;;;20.27;;
79578;SDS011;69051;52.406;5.280;2023-05-07T00:21:46;26.95;;;18.98;;
79578;SDS011;69051;52.406;5.280;2023-05-07T00:24:13;25.10;;;18.67;;
79578;SDS011;69051;52.406;5.280;2023-05-07T00:26:39;22.10;;;17.27;;
79578;SDS011;69051;52.406;5.280;2023-05-07T00:29:05;24.98;;;17.38;;
79578;SDS011;69051;52.406;5.280;2023-05-07T00:31:32;27.80;;;18.45;;
79578;SDS011;69051;52.406;5.280;2023-05-07T00:33:58;29.15;;;19.83;;
79578;SDS011;69051;52.406;5.280;2023-05-07T00:36:25;31.27;;;18.50;;
79578;SDS011;69051;52.406;5.280;2023-05-07T00:38:53;31.33;;;19.75;;
79578;SDS011;69051;52.406;5.280;2023-05-07T00:41:20;24.90;;;18.30;;
79578;SDS011;69051;52.406;5.280;2023-05-07T00:43:46;28.60;;;18.17;;
79578;SDS011;69051;52.406;5.280;2023-05-07T00:46:13;25.48;;;17.48;;
79578;SDS011;69051;52.406;5.280;2023-05-07T00:48:40;27.70;;;16.80;;
79578;SDS011;69051;52.406;5.280;2023-05-07T00:51:06;26.40;;;17.05;;
79578;SDS011;69051;52.406;5.280;2023-05-07T00:53:33;23.70;;;15.93;;
79578;SDS011;69051;52.406;5.280;2023-05-07T00:56:00;22.80;;;15.63;;
79578;SDS011;69051;52.406;5.280;2023-05-07T00:58:27;22.40;;;14.90;;
79578;SDS011;69051;52.406;5.280;2023-05-07T01:00:53;22.30;;;13.85;;
79578;SDS011;69051;52.406;5.280;2023-05-07T01:03:20;19.35;;;13.00;;
79578;SDS011;69051;52.406;5.280;2023-05-07T01:05:47;17.48;;;13.07;;
79578;SDS011;69051;52.406;5.280;2023-05-07T01:08:14;21.92;;;13.55;;
79578;SDS011;69051;52.406;5.280;2023-05-07T01:10:41;18.48;;;13.02;;
79578;SDS011;69051;52.406;5.280;2023-05-07T01:13:09;19.30;;;13.57;;
79578;SDS011;69051;52.406;5.280;2023-05-07T01:15:36;17.35;;;12.55;;
79578;SDS011;69051;52.406;5.280;2023-05-07T01:18:03;18.75;;;12.88;;
79578;SDS011;69051;52.406;5.280;2023-05-07T01:20:30;20.38;;;13.55;;
79578;SDS011;69051;52.406;5.280;2023-05-07T01:22:57;18.65;;;13.43;;
79578;SDS011;69051;52.406;5.280;2023-05-07T01:25:23;22.70;;;12.35;;
79578;SDS011;69051;52.406;5.280;2023-05-07T01:27:50;19.25;;;13.55;;
79578;SDS011;69051;52.406;5.280;2023-05-07T01:30:16;20.80;;;12.68;;
79578;SDS011;69051;52.406;5.280;2023-05-07T01:32:49;17.67;;;12.88;;
79578;SDS011;69051;52.406;5.280;2023-05-07T01:35:19;18.70;;;12.18;;
79578;SDS011;69051;52.406;5.280;2023-05-07T01:37:50;16.83;;;12.40;;
79578;SDS011;69051;52.406;5.280;2023-05-07T01:40:17;23.10;;;13.07;;
79578;SDS011;69051;52.406;5.280;2023-05-07T01:42:43;18.88;;;12.70;;
79578;SDS011;69051;52.406;5.280;2023-05-07T01:45:10;17.40;;;11.82;;
79578;SDS011;69051;52.406;5.280;2023-05-07T01:47:37;18.95;;;11.90;;
79578;SDS011;69051;52.406;5.280;2023-05-07T01:50:05;18.95;;;12.30;;
79578;SDS011;69051;52.406;5.280;2023-05-07T01:52:32;21.63;;;12.63;;
79578;SDS011;69051;52.406;5.280;2023-05-07T01:54:58;18.02;;;12.45;;
79578;SDS011;69051;52.406;5.280;2023-05-07T01:57:25;21.65;;;11.85;;
79578;SDS011;69051;52.406;5.280;2023-05-07T01:59:51;18.52;;;11.55;;
79578;SDS011;69051;52.406;5.280;2023-05-07T02:02:18;17.35;;;11.65;;
79578;SDS011;69051;52.406;5.280;2023-05-07T02:04:44;19.77;;;12.10;;
79578;SDS011;69051;52.406;5.280;2023-05-07T02:07:11;19.25;;;11.52;;
79578;SDS011;69051;52.406;5.280;2023-05-07T02:09:37;18.00;;;11.80;;
79578;SDS011;69051;52.406;5.280;2023-05-07T02:12:04;18.38;;;11.57;;
79578;SDS011;69051;52.406;5.280;2023-05-07T02:14:30;14.82;;;10.80;;
79578;SDS011;69051;52.406;5.280;2023-05-07T02:16:56;14.35;;;10.63;;
79578;SDS011;69051;52.406;5.280;2023-05-07T02:19:23;19.95;;;11.70;;
79578;SDS011;69051;52.406;5.280;2023-05-07T02:21:49;18.83;;;11.85;;
79578;SDS011;69051;52.406;5.280;2023-05-07T02:24:17;15.73;;;11.10;;
79578;SDS011;69051;52.406;5.280;2023-05-07T02:26:43;15.00;;;10.90;;
79578;SDS011;69051;52.406;5.280;2023-05-07T02:29:09;18.50;;;10.85;;
79578;SDS011;69051;52.406;5.280;2023-05-07T02:31:36;16.20;;;11.55;;
79578;SDS011;69051;52.406;5.280;2023-05-07T02:34:02;16.83;;;11.15;;
79578;SDS011;69051;52.406;5.280;2023-05-07T02:36:29;15.15;;;10.98;;
79578;SDS011;69051;52.406;5.280;2023-05-07T02:38:56;17.27;;;10.77;;
79578;SDS011;69051;52.406;5.280;2023-05-07T02:41:22;16.67;;;10.45;;
79578;SDS011;69051;52.406;5.280;2023-05-07T02:43:49;19.17;;;10.23;;
79578;SDS011;69051;52.406;5.280;2023-05-07T02:46:15;19.08;;;11.00;;
79578;SDS011;69051;52.406;5.280;2023-05-07T02:48:42;17.23;;;10.73;;
79578;SDS011;69051;52.406;5.280;2023-05-07T02:51:09;19.08;;;12.20;;
79578;SDS011;69051;52.406;5.280;2023-05-07T02:53:35;16.48;;;11.40;;
79578;SDS011;69051;52.406;5.280;2023-05-07T02:56:02;15.68;;;11.77;;
79578;SDS011;69051;52.406;5.280;2023-05-07T02:58:28;15.75;;;12.07;;
79578;SDS011;69051;52.406;5.280;2023-05-07T03:00:55;15.32;;;11.63;;
79578;SDS011;69051;52.406;5.280;2023-05-07T03:03:21;16.67;;;11.52;;
79578;SDS011;69051;52.406;5.280;2023-05-07T03:05:48;16.60;;;11.13;;
79578;SDS011;69051;52.406;5.280;2023-05-07T03:08:14;16.80;;;12.18;;
79578;SDS011;69051;52.406;5.280;2023-05-07T03:10:40;17.88;;;10.88;;
79578;SDS011;69051;52.406;5.280;2023-05-07T03:13:07;15.40;;;11.32;;
79578;SDS011;69051;52.406;5.280;2023-05-07T03:15:33;16.25;;;11.70;;
79578;SDS011;69051;52.406;5.280;2023-05-07T03:18:00;18.52;;;11.25;;
79578;SDS011;69051;52.406;5.280;2023-05-07T03:20:26;16.95;;;10.90;;
79578;SDS011;69051;52.406;5.280;2023-05-07T03:22:53;20.75;;;12.77;;
79578;SDS011;69051;52.406;5.280;2023-05-07T03:25:19;16.85;;;12.57;;
79578;SDS011;69051;52.406;5.280;2023-05-07T03:27:46;17.83;;;13.20;;
79578;SDS011;69051;52.406;5.280;2023-05-07T03:30:12;18.00;;;12.48;;
79578;SDS011;69051;52.406;5.280;2023-05-07T03:32:39;19.23;;;12.18;;
79578;SDS011;69051;52.406;5.280;2023-05-07T03:35:06;19.38;;;12.13;;
79578;SDS011;69051;52.406;5.280;2023-05-07T03:37:33;20.58;;;12.35;;
79578;SDS011;69051;52.406;5.280;2023-05-07T03:39:59;18.23;;;12.10;;
79578;SDS011;69051;52.406;5.280;2023-05-07T03:42:26;23.52;;;13.57;;
79578;SDS011;69051;52.406;5.280;2023-05-07T03:44:52;16.05;;;11.55;;
79578;SDS011;69051;52.406;5.280;2023-05-07T03:47:18;16.35;;;11.68;;
79578;SDS011;69051;52.406;5.280;2023-05-07T03:49:45;18.15;;;12.00;;
79578;SDS011;69051;52.406;5.280;2023-05-07T03:52:11;18.08;;;11.25;;
79578;SDS011;69051;52.406;5.280;2023-05-07T03:54:37;20.88;;;11.95;;
79578;SDS011;69051;52.406;5.280;2023-05-07T03:57:04;18.85;;;12.50;;
79578;SDS011;69051;52.406;5.280;2023-05-07T03:59:30;16.08;;;11.55;;
79578;SDS011;69051;52.406;5.280;2023-05-07T04:01:57;17.65;;;11.50;;
79578;SDS011;69051;52.406;5.280;2023-05-07T04:04:24;20.38;;;12.07;;
79578;SDS011;69051;52.406;5.280;2023-05-07T04:06:50;16.15;;;11.63;;
79578;SDS011;69051;52.406;5.280;2023-05-07T04:09:17;16.95;;;11.80;;
79578;SDS011;69051;52.406;5.280;2023-05-07T04:11:44;16.02;;;10.85;;
79578;SDS011;69051;52.406;5.280;2023-05-07T04:14:10;14.60;;;11.38;;
79578;SDS011;69051;52.406;5.280;2023-05-07T04:16:36;23.05;;;11.48;;
79578;SDS011;69051;52.406;5.280;2023-05-07T04:19:03;16.73;;;11.85;;
79578;SDS011;69051;52.406;5.280;2023-05-07T04:21:29;19.52;;;12.45;;
79578;SDS011;69051;52.406;5.280;2023-05-07T04:23:56;18.88;;;12.32;;
79578;SDS011;69051;52.406;5.280;2023-05-07T04:26:22;17.08;;;12.10;;
79578;SDS011;69051;52.406;5.280;2023-05-07T04:28:50;19.48;;;12.52;;
79578;SDS011;69051;52.406;5.280;2023-05-07T04:31:16;24.13;;;14.05;;
79578;SDS011;69051;52.406;5.280;2023-05-07T04:33:43;20.10;;;14.40;;
79578;SDS011;69051;52.406;5.280;2023-05-07T04:36:09;23.10;;;14.43;;
79578;SDS011;69051;52.406;5.280;2023-05-07T04:38:36;24.33;;;13.93;;
79578;SDS011;69051;52.406;5.280;2023-05-07T04:41:03;23.83;;;15.13;;
79578;SDS011;69051;52.406;5.280;2023-05-07T04:43:31;24.67;;;14.90;;
79578;SDS011;69051;52.406;5.280;2023-05-07T04:45:57;22.00;;;15.30;;
79578;SDS011;69051;52.406;5.280;2023-05-07T04:48:24;28.50;;;16.33;;
79578;SDS011;69051;52.406;5.280;2023-05-07T04:50:50;25.05;;;16.02;;
79578;SDS011;69051;52.406;5.280;2023-05-07T04:53:17;20.95;;;14.93;;
79578;SDS011;69051;52.406;5.280;2023-05-07T04:55:44;26.55;;;16.63;;
79578;SDS011;69051;52.406;5.280;2023-05-07T04:58:11;25.50;;;16.35;;
79578;SDS011;69051;52.406;5.280;2023-05-07T05:00:38;25.52;;;17.15;;
79578;SDS011;69051;52.406;5.280;2023-05-07T05:03:08;26.17;;;17.27;;
79578;SDS011;69051;52.406;5.280;2023-05-07T05:05:34;24.63;;;17.27;;
79578;SDS011;69051;52.406;5.280;2023-05-07T05:08:01;26.50;;;18.58;;
79578;SDS011;69051;52.406;5.280;2023-05-07T05:10:27;28.00;;;18.60;;
79578;SDS011;69051;52.406;5.280;2023-05-07T05:12:54;27.10;;;17.60;;
79578;SDS011;69051;52.406;5.280;2023-05-07T05:15:20;29.38;;;18.52;;
79578;SDS011;69051;52.406;5.280;2023-05-07T05:17:47;28.85;;;18.52;;
79578;SDS011;69051;52.406;5.280;2023-05-07T05:20:13;31.83;;;19.45;;
79578;SDS011;69051;52.406;5.280;2023-05-07T05:22:41;29.75;;;19.33;;
79578;SDS011;69051;52.406;5.280;2023-05-07T05:25:08;30.67;;;20.25;;
79578;SDS011;69051;52.406;5.280;2023-05-07T05:27:34;37.15;;;23.25;;
79578;SDS011;69051;52.406;5.280;2023-05-07T05:30:02;33.88;;;22.60;;
79578;SDS011;69051;52.406;5.280;2023-05-07T05:32:29;38.72;;;26.35;;
79578;SDS011;69051;52.406;5.280;2023-05-07T05:34:55;42.00;;;27.35;;
79578;SDS011;69051;52.406;5.280;2023-05-07T05:37:22;46.08;;;28.38;;
79578;SDS011;69051;52.406;5.280;2023-05-07T05:39:48;44.67;;;28.48;;
79578;SDS011;69051;52.406;5.280;2023-05-07T05:42:15;42.33;;;26.17;;
79578;SDS011;69051;52.406;5.280;2023-05-07T05:44:41;47.15;;;29.75;;
79578;SDS011;69051;52.406;5.280;2023-05-07T05:47:08;50.35;;;28.33;;
79578;SDS011;69051;52.406;5.280;2023-05-07T05:49:34;47.28;;;30.50;;
79578;SDS011;69051;52.406;5.280;2023-05-07T05:52:01;48.95;;;30.40;;
79578;SDS011;69051;52.406;5.280;2023-05-07T05:54:27;49.63;;;31.10;;
79578;SDS011;69051;52.406;5.280;2023-05-07T05:56:54;46.78;;;30.98;;
79578;SDS011;69051;52.406;5.280;2023-05-07T05:59:20;50.42;;;31.40;;
79578;SDS011;69051;52.406;5.280;2023-05-07T06:01:47;48.08;;;29.98;;
79578;SDS011;69051;52.406;5.280;2023-05-07T06:04:13;47.42;;;29.45;;
79578;SDS011;69051;52.406;5.280;2023-05-07T06:06:40;48.55;;;30.08;;
79578;SDS011;69051;52.406;5.280;2023-05-07T06:09:06;41.05;;;28.05;;
79578;SDS011;69051;52.406;5.280;2023-05-07T06:11:33;42.83;;;30.20;;
79578;SDS011;69051;52.406;5.280;2023-05-07T06:13:59;42.47;;;28.98;;
79578;SDS011;69051;52.406;5.280;2023-05-07T06:16:25;42.58;;;28.23;;
79578;SDS011;69051;52.406;5.280;2023-05-07T06:18:52;48.95;;;30.20;;
79578;SDS011;69051;52.406;5.280;2023-05-07T06:21:18;46.58;;;30.52;;
79578;SDS011;69051;52.406;5.280;2023-05-07T06:23:45;47.13;;;31.02;;
79578;SDS011;69051;52.406;5.280;2023-05-07T06:26:11;45.72;;;29.48;;
79578;SDS011;69051;52.406;5.280;2023-05-07T06:28:38;45.72;;;30.77;;
79578;SDS011;69051;52.406;5.280;2023-05-07T06:31:11;43.70;;;30.75;;
79578;SDS011;69051;52.406;5.280;2023-05-07T06:33:41;44.28;;;29.05;;
79578;SDS011;69051;52.406;5.280;2023-05-07T06:36:08;42.28;;;28.85;;
79578;SDS011;69051;52.406;5.280;2023-05-07T06:38:35;43.40;;;28.75;;
79578;SDS011;69051;52.406;5.280;2023-05-07T06:41:01;44.60;;;27.52;;
79578;SDS011;69051;52.406;5.280;2023-05-07T06:43:27;41.35;;;29.25;;
79578;SDS011;69051;52.406;5.280;2023-05-07T06:45:54;45.63;;;28.60;;
79578;SDS011;69051;52.406;5.280;2023-05-07T06:48:20;41.47;;;28.50;;
79578;SDS011;69051;52.406;5.280;2023-05-07T06:50:47;43.55;;;28.45;;
79578;SDS011;69051;52.406;5.280;2023-05-07T06:53:13;40.70;;;28.88;;
79578;SDS011;69051;52.406;5.280;2023-05-07T06:55:40;40.97;;;30.15;;
79578;SDS011;69051;52.406;5.280;2023-05-07T06:58:07;39.80;;;28.35;;
79578;SDS011;69051;52.406;5.280;2023-05-07T07:00:34;43.15;;;27.75;;
79578;SDS011;69051;52.406;5.280;2023-05-07T07:03:01;43.47;;;28.27;;
79578;SDS011;69051;52.406;5.280;2023-05-07T07:05:27;43.63;;;29.35;;
79578;SDS011;69051;52.406;5.280;2023-05-07T07:07:54;42.47;;;29.02;;
79578;SDS011;69051;52.406;5.280;2023-05-07T07:10:20;38.42;;;27.00;;
79578;SDS011;69051;52.406;5.280;2023-05-07T07:12:50;42.25;;;26.35;;
79578;SDS011;69051;52.406;5.280;2023-05-07T07:15:16;41.45;;;27.52;;
79578;SDS011;69051;52.406;5.280;2023-05-07T07:17:43;35.28;;;24.00;;
79578;SDS011;69051;52.406;5.280;2023-05-07T07:20:09;37.72;;;26.85;;
79578;SDS011;69051;52.406;5.280;2023-05-07T07:22:37;37.70;;;25.38;;
79578;SDS011;69051;52.406;5.280;2023-05-07T07:25:04;35.20;;;24.33;;
79578;SDS011;69051;52.406;5.280;2023-05-07T07:27:30;36.60;;;26.05;;
79578;SDS011;69051;52.406;5.280;2023-05-07T07:29:57;35.88;;;24.83;;
79578;SDS011;69051;52.406;5.280;2023-05-07T07:32:23;38.47;;;27.92;;
79578;SDS011;69051;52.406;5.280;2023-05-07T07:34:50;38.53;;;26.08;;
79578;SDS011;69051;52.406;5.280;2023-05-07T07:37:16;35.60;;;25.55;;
79578;SDS011;69051;52.406;5.280;2023-05-07T07:39:42;35.42;;;24.30;;
79578;SDS011;69051;52.406;5.280;2023-05-07T07:42:09;37.30;;;25.45;;
79578;SDS011;69051;52.406;5.280;2023-05-07T07:44:35;35.97;;;24.70;;
79578;SDS011;69051;52.406;5.280;2023-05-07T07:47:02;40.13;;;25.25;;
79578;SDS011;69051;52.406;5.280;2023-05-07T07:49:28;35.25;;;26.08;;
79578;SDS011;69051;52.406;5.280;2023-05-07T07:51:54;37.58;;;24.63;;
79578;SDS011;69051;52.406;5.280;2023-05-07T07:54:22;33.33;;;23.08;;
79578;SDS011;69051;52.406;5.280;2023-05-07T07:56:48;32.33;;;22.98;;
79578;SDS011;69051;52.406;5.280;2023-05-07T07:59:15;36.30;;;24.23;;
79578;SDS011;69051;52.406;5.280;2023-05-07T08:01:44;34.75;;;23.30;;
79578;SDS011;69051;52.406;5.280;2023-05-07T08:04:11;34.28;;;23.73;;
79578;SDS011;69051;52.406;5.280;2023-05-07T08:06:38;31.10;;;21.52;;
79578;SDS011;69051;52.406;5.280;2023-05-07T08:09:04;31.33;;;20.50;;
79578;SDS011;69051;52.406;5.280;2023-05-07T08:11:31;33.17;;;21.88;;
79578;SDS011;69051;52.406;5.280;2023-05-07T08:13:57;35.60;;;22.92;;
79578;SDS011;69051;52.406;5.280;2023-05-07T08:16:23;33.97;;;23.38;;
79578;SDS011;69051;52.406;5.280;2023-05-07T08:18:50;34.95;;;22.17;;
79578;SDS011;69051;52.406;5.280;2023-05-07T08:21:16;32.53;;;24.45;;
79578;SDS011;69051;52.406;5.280;2023-05-07T08:23:43;32.85;;;23.70;;
79578;SDS011;69051;52.406;5.280;2023-05-07T08:26:09;32.53;;;23.65;;
79578;SDS011;69051;52.406;5.280;2023-05-07T08:28:36;31.73;;;22.00;;
79578;SDS011;69051;52.406;5.280;2023-05-07T08:31:02;28.75;;;20.35;;
79578;SDS011;69051;52.406;5.280;2023-05-07T08:33:28;33.65;;;19.80;;
79578;SDS011;69051;52.406;5.280;2023-05-07T08:35:55;28.50;;;19.92;;
79578;SDS011;69051;52.406;5.280;2023-05-07T08:38:21;29.23;;;19.27;;
79578;SDS011;69051;52.406;5.280;2023-05-07T08:40:48;28.58;;;19.73;;
79578;SDS011;69051;52.406;5.280;2023-05-07T08:43:14;26.27;;;18.83;;
79578;SDS011;69051;52.406;5.280;2023-05-07T08:45:41;29.15;;;18.75;;
79578;SDS011;69051;52.406;5.280;2023-05-07T08:48:17;27.50;;;18.42;;
79578;SDS011;69051;52.406;5.280;2023-05-07T08:50:43;28.02;;;20.73;;
79578;SDS011;69051;52.406;5.280;2023-05-07T08:53:10;28.42;;;19.20;;
79578;SDS011;69051;52.406;5.280;2023-05-07T08:55:36;28.70;;;18.92;;
79578;SDS011;69051;52.406;5.280;2023-05-07T08:58:04;29.30;;;20.98;;
79578;SDS011;69051;52.406;5.280;2023-05-07T09:00:30;27.98;;;18.98;;
79578;SDS011;69051;52.406;5.280;2023-05-07T09:02:57;30.58;;;19.33;;
79578;SDS011;69051;52.406;5.280;2023-05-07T09:05:23;24.30;;;18.55;;
79578;SDS011;69051;52.406;5.280;2023-05-07T09:07:50;25.92;;;18.30;;
79578;SDS011;69051;52.406;5.280;2023-05-07T09:10:20;24.95;;;17.90;;
79578;SDS011;69051;52.406;5.280;2023-05-07T09:12:46;27.73;;;18.55;;
79578;SDS011;69051;52.406;5.280;2023-05-07T09:15:14;28.08;;;19.08;;
79578;SDS011;69051;52.406;5.280;2023-05-07T09:17:40;31.73;;;19.85;;
79578;SDS011;69051;52.406;5.280;2023-05-07T09:20:08;26.90;;;19.25;;
79578;SDS011;69051;52.406;5.280;2023-05-07T09:22:36;27.48;;;19.40;;
79578;SDS011;69051;52.406;5.280;2023-05-07T09:25:04;27.60;;;19.98;;
79578;SDS011;69051;52.406;5.280;2023-05-07T09:27:32;26.75;;;19.42;;
79578;SDS011;69051;52.406;5.280;2023-05-07T09:29:58;28.42;;;18.35;;
79578;SDS011;69051;52.406;5.280;2023-05-07T09:32:25;26.73;;;19.63;;
79578;SDS011;69051;52.406;5.280;2023-05-07T09:34:53;28.70;;;20.08;;
79578;SDS011;69051;52.406;5.280;2023-05-07T09:37:20;26.58;;;19.88;;
79578;SDS011;69051;52.406;5.280;2023-05-07T09:39:47;25.45;;;18.38;;
79578;SDS011;69051;52.406;5.280;2023-05-07T09:42:14;27.45;;;19.25;;
79578;SDS011;69051;52.406;5.280;2023-05-07T09:44:41;29.35;;;19.55;;
79578;SDS011;69051;52.406;5.280;2023-05-07T09:47:09;27.35;;;19.83;;
79578;SDS011;69051;52.406;5.280;2023-05-07T09:49:37;26.88;;;18.48;;
79578;SDS011;69051;52.406;5.280;2023-05-07T09:52:05;26.10;;;19.15;;
79578;SDS011;69051;52.406;5.280;2023-05-07T09:54:35;27.02;;;20.63;;
79578;SDS011;69051;52.406;5.280;2023-05-07T09:57:04;29.40;;;17.55;;
79578;SDS011;69051;52.406;5.280;2023-05-07T09:59:32;27.15;;;19.05;;
79578;SDS011;69051;52.406;5.280;2023-05-07T10:01:59;27.63;;;18.20;;
79578;SDS011;69051;52.406;5.280;2023-05-07T10:04:30;23.60;;;17.73;;
79578;SDS011;69051;52.406;5.280;2023-05-07T10:06:58;26.30;;;18.65;;
79578;SDS011;69051;52.406;5.280;2023-05-07T10:09:25;21.83;;;16.05;;
79578;SDS011;69051;52.406;5.280;2023-05-07T10:11:52;24.30;;;17.42;;
79578;SDS011;69051;52.406;5.280;2023-05-07T10:14:22;22.35;;;18.65;;
79578;SDS011;69051;52.406;5.280;2023-05-07T10:16:48;23.02;;;16.52;;
79578;SDS011;69051;52.406;5.280;2023-05-07T10:19:15;22.95;;;16.08;;
79578;SDS011;69051;52.406;5.280;2023-05-07T10:21:44;19.65;;;14.68;;
79578;SDS011;69051;52.406;5.280;2023-05-07T10:24:27;21.80;;;14.40;;
79578;SDS011;69051;52.406;5.280;2023-05-07T10:26:55;18.13;;;12.38;;
79578;SDS011;69051;52.406;5.280;2023-05-07T10:31:59;20.98;;;12.55;;
79578;SDS011;69051;52.406;5.280;2023-05-07T10:34:53;17.13;;;12.13;;
79578;SDS011;69051;52.406;5.280;2023-05-07T10:37:21;20.23;;;11.48;;
79578;SDS011;69051;52.406;5.280;2023-05-07T10:39:48;19.73;;;13.75;;
79578;SDS011;69051;52.406;5.280;2023-05-07T10:42:15;18.23;;;13.18;;
79578;SDS011;69051;52.406;5.280;2023-05-07T10:44:42;18.20;;;12.80;;
79578;SDS011;69051;52.406;5.280;2023-05-07T10:47:10;21.02;;;15.00;;
79578;SDS011;69051;52.406;5.280;2023-05-07T10:50:23;21.02;;;15.32;;
79578;SDS011;69051;52.406;5.280;2023-05-07T10:52:30;16.67;;;12.98;;
79578;SDS011;69051;52.406;5.280;2023-05-07T11:05:31;19.02;;;12.07;;
79578;SDS011;69051;52.406;5.280;2023-05-07T11:08:03;17.65;;;12.75;;
79578;SDS011;69051;52.406;5.280;2023-05-07T11:10:49;18.80;;;13.98;;
79578;SDS011;69051;52.406;5.280;2023-05-07T11:16:21;16.52;;;12.15;;
79578;SDS011;69051;52.406;5.280;2023-05-07T11:18:52;18.52;;;14.20;;
79578;SDS011;69051;52.406;5.280;2023-05-07T11:24:02;20.90;;;16.55;;
79578;SDS011;69051;52.406;5.280;2023-05-07T11:26:30;22.52;;;16.17;;
79578;SDS011;69051;52.406;5.280;2023-05-07T11:29:14;22.75;;;15.95;;
79578;SDS011;69051;52.406;5.280;2023-05-07T11:31:40;22.90;;;15.43;;
79578;SDS011;69051;52.406;5.280;2023-05-07T11:34:07;19.65;;;15.50;;
79578;SDS011;69051;52.406;5.280;2023-05-07T11:36:34;19.13;;;13.05;;
79578;SDS011;69051;52.406;5.280;2023-05-07T11:39:00;17.17;;;10.35;;
79578;SDS011;69051;52.406;5.280;2023-05-07T11:41:33;15.93;;;10.25;;
79578;SDS011;69051;52.406;5.280;2023-05-07T11:44:02;16.20;;;10.52;;
79578;SDS011;69051;52.406;5.280;2023-05-07T11:46:28;15.65;;;10.32;;
79578;SDS011;69051;52.406;5.280;2023-05-07T11:48:56;18.15;;;11.38;;
79578;SDS011;69051;52.406;5.280;2023-05-07T11:51:24;13.77;;;9.32;;
79578;SDS011;69051;52.406;5.280;2023-05-07T11:53:52;21.38;;;13.80;;
79578;SDS011;69051;52.406;5.280;2023-05-07T11:56:19;19.10;;;13.15;;
79578;SDS011;69051;52.406;5.280;2023-05-07T11:58:46;16.70;;;11.32;;
79578;SDS011;69051;52.406;5.280;2023-05-07T12:01:13;15.85;;;11.35;;
79578;SDS011;69051;52.406;5.280;2023-05-07T12:03:41;16.52;;;11.15;;
79578;SDS011;69051;52.406;5.280;2023-05-07T12:06:09;16.42;;;11.23;;
79578;SDS011;69051;52.406;5.280;2023-05-07T12:08:37;18.02;;;12.35;;
79578;SDS011;69051;52.406;5.280;2023-05-07T12:11:06;15.88;;;11.30;;
79578;SDS011;69051;52.406;5.280;2023-05-07T12:13:34;16.92;;;10.77;;
79578;SDS011;69051;52.406;5.280;2023-05-07T12:16:01;16.38;;;9.75;;
79578;SDS011;69051;52.406;5.280;2023-05-07T12:18:31;14.30;;;9.68;;
79578;SDS011;69051;52.406;5.280;2023-05-07T12:20:57;18.65;;;9.85;;
79578;SDS011;69051;52.406;5.280;2023-05-07T12:23:25;17.33;;;11.20;;
79578;SDS011;69051;52.406;5.280;2023-05-07T12:25:51;15.30;;;10.35;;
79578;SDS011;69051;52.406;5.280;2023-05-07T12:28:18;14.13;;;9.50;;
79578;SDS011;69051;52.406;5.280;2023-05-07T12:30:46;15.55;;;8.77;;
79578;SDS011;69051;52.406;5.280;2023-05-07T12:33:17;14.43;;;9.20;;
79578;SDS011;69051;52.406;5.280;2023-05-07T12:35:45;13.65;;;7.82;;
79578;SDS011;69051;52.406;5.280;2023-05-07T12:38:15;14.45;;;9.00;;
79578;SDS011;69051;52.406;5.280;2023-05-07T12:40:47;12.65;;;8.13;;
79578;SDS011;69051;52.406;5.280;2023-05-07T12:45:44;17.33;;;7.93;;
79578;SDS011;69051;52.406;5.280;2023-05-07T12:48:11;17.15;;;8.88;;
79578;SDS011;69051;52.406;5.280;2023-05-07T12:50:38;12.02;;;7.47;;
79578;SDS011;69051;52.406;5.280;2023-05-07T12:53:05;12.25;;;8.13;;
79578;SDS011;69051;52.406;5.280;2023-05-07T12:55:32;14.48;;;8.10;;
79578;SDS011;69051;52.406;5.280;2023-05-07T12:58:06;11.98;;;7.22;;
79578;SDS011;69051;52.406;5.280;2023-05-07T13:00:36;14.45;;;8.90;;
79578;SDS011;69051;52.406;5.280;2023-05-07T13:03:04;16.25;;;9.65;;
79578;SDS011;69051;52.406;5.280;2023-05-07T13:05:31;12.88;;;8.70;;
79578;SDS011;69051;52.406;5.280;2023-05-07T13:07:58;14.15;;;9.20;;
79578;SDS011;69051;52.406;5.280;2023-05-07T13:10:24;15.55;;;9.70;;
79578;SDS011;69051;52.406;5.280;2023-05-07T13:12:51;15.18;;;9.35;;
79578;SDS011;69051;52.406;5.280;2023-05-07T13:15:18;18.05;;;8.82;;
79578;SDS011;69051;52.406;5.280;2023-05-07T13:17:45;17.20;;;8.43;;
79578;SDS011;69051;52.406;5.280;2023-05-07T13:20:11;16.10;;;8.43;;
79578;SDS011;69051;52.406;5.280;2023-05-07T13:22:41;12.90;;;6.85;;
79578;SDS011;69051;52.406;5.280;2023-05-07T13:25:08;12.25;;;6.97;;
79578;SDS011;69051;52.406;5.280;2023-05-07T13:27:35;10.68;;;5.50;;
79578;SDS011;69051;52.406;5.280;2023-05-07T13:30:03;11.02;;;6.38;;
79578;SDS011;69051;52.406;5.280;2023-05-07T13:32:30;11.32;;;5.15;;
79578;SDS011;69051;52.406;5.280;2023-05-07T13:34:57;14.25;;;5.93;;
79578;SDS011;69051;52.406;5.280;2023-05-07T13:37:24;9.05;;;4.53;;
79578;SDS011;69051;52.406;5.280;2023-05-07T13:39:50;9.77;;;4.35;;
79578;SDS011;69051;52.406;5.280;2023-05-07T13:42:17;12.30;;;4.68;;
79578;SDS011;69051;52.406;5.280;2023-05-07T13:44:43;6.20;;;2.90;;
79578;SDS011;69051;52.406;5.280;2023-05-07T13:47:10;9.55;;;3.03;;
79578;SDS011;69051;52.406;5.280;2023-05-07T13:49:37;6.20;;;2.78;;
79578;SDS011;69051;52.406;5.280;2023-05-07T13:52:03;8.68;;;2.50;;
79578;SDS011;69051;52.406;5.280;2023-05-07T13:54:30;9.00;;;2.10;;
79578;SDS011;69051;52.406;5.280;2023-05-07T13:56:56;8.80;;;2.92;;
79578;SDS011;69051;52.406;5.280;2023-05-07T13:59:23;8.10;;;3.03;;
79578;SDS011;69051;52.406;5.280;2023-05-07T14:01:49;11.93;;;5.10;;
79578;SDS011;69051;52.406;5.280;2023-05-07T14:04:16;11.77;;;5.20;;
79578;SDS011;69051;52.406;5.280;2023-05-07T14:06:42;12.73;;;6.40;;
79578;SDS011;69051;52.406;5.280;2023-05-07T14:09:09;11.60;;;5.95;;
79578;SDS011;69051;52.406;5.280;2023-05-07T14:11:38;13.05;;;5.65;;
79578;SDS011;69051;52.406;5.280;2023-05-07T14:14:05;36.95;;;22.25;;
79578;SDS011;69051;52.406;5.280;2023-05-07T14:16:31;10.32;;;6.15;;
79578;SDS011;69051;52.406;5.280;2023-05-07T14:18:58;10.23;;;6.07;;
79578;SDS011;69051;52.406;5.280;2023-05-07T14:21:24;14.10;;;5.15;;
79578;SDS011;69051;52.406;5.280;2023-05-07T14:23:51;9.63;;;4.15;;
79578;SDS011;69051;52.406;5.280;2023-05-07T14:26:17;9.45;;;4.35;;
79578;SDS011;69051;52.406;5.280;2023-05-07T14:28:43;11.10;;;5.93;;
79578;SDS011;69051;52.406;5.280;2023-05-07T14:31:12;13.50;;;6.13;;
79578;SDS011;69051;52.406;5.280;2023-05-07T14:33:39;12.27;;;6.30;;
79578;SDS011;69051;52.406;5.280;2023-05-07T14:36:07;12.63;;;6.20;;
79578;SDS011;69051;52.406;5.280;2023-05-07T14:38:33;12.30;;;7.10;;
79578;SDS011;69051;52.406;5.280;2023-05-07T14:41:00;12.05;;;7.97;;
79578;SDS011;69051;52.406;5.280;2023-05-07T14:43:26;17.33;;;8.15;;
79578;SDS011;69051;52.406;5.280;2023-05-07T14:45:53;18.05;;;8.93;;